createdAt,value
2019-05-20T00:00:11.718Z,3.27
2019-05-20T00:02:40.886Z,3.40
2019-05-20T00:05:10.372Z,3.03
2019-05-20T00:07:39.617Z,3.00
2019-05-20T00:10:09.925Z,3.00
2019-05-20T00:12:39.110Z,3.23
2019-05-20T00:15:08.531Z,3.20
2019-05-20T00:17:37.707Z,3.23
2019-05-20T00:20:07.201Z,3.20
2019-05-20T00:22:36.481Z,3.20
2019-05-20T00:25:06.604Z,3.50
2019-05-20T00:27:35.898Z,3.20
2019-05-20T00:30:05.874Z,3.40
2019-05-20T00:32:40.957Z,2.87
2019-05-20T00:35:06.853Z,3.00
2019-05-20T00:37:36.214Z,3.80
2019-05-20T00:40:06.268Z,3.23
2019-05-20T00:42:35.453Z,3.10
2019-05-20T00:45:05.254Z,2.63
2019-05-20T00:47:34.612Z,2.97
2019-05-20T00:50:03.999Z,3.30
2019-05-20T00:52:33.179Z,3.20
2019-05-20T00:55:02.531Z,3.27
2019-05-20T00:57:31.731Z,3.20
2019-05-20T01:00:00.884Z,3.00
2019-05-20T01:02:30.253Z,2.90
2019-05-20T01:04:59.405Z,3.20
2019-05-20T01:07:28.941Z,2.70
2019-05-20T01:09:58.106Z,2.90
2019-05-20T01:12:27.295Z,3.17
2019-05-20T01:14:56.550Z,2.63
2019-05-20T01:17:25.746Z,3.10
2019-05-20T01:19:54.892Z,2.60
2019-05-20T01:22:24.252Z,2.63
2019-05-20T01:24:53.402Z,2.67
2019-05-20T01:27:22.589Z,2.47
2019-05-20T01:29:51.784Z,2.47
2019-05-20T01:32:20.977Z,2.47
2019-05-20T01:34:50.143Z,2.40
2019-05-20T01:37:19.606Z,2.70
2019-05-20T01:39:48.755Z,2.30
2019-05-20T01:42:17.949Z,2.10
2019-05-20T01:44:47.177Z,2.23
2019-05-20T01:47:16.455Z,2.30
2019-05-20T01:49:45.602Z,2.03
2019-05-20T01:52:14.982Z,2.07
2019-05-20T01:54:44.136Z,2.37
2019-05-20T01:57:13.304Z,2.00
2019-05-20T01:59:42.554Z,2.00
2019-05-20T02:02:11.743Z,1.60
2019-05-20T02:04:40.929Z,1.90
2019-05-20T02:07:10.416Z,1.63
2019-05-20T02:09:39.740Z,1.80
2019-05-20T02:12:09.011Z,1.70
2019-05-20T02:14:44.004Z,1.50
2019-05-20T02:17:13.273Z,1.60
2019-05-20T02:19:42.451Z,1.60
2019-05-20T02:22:11.609Z,1.63
2019-05-20T02:24:41.051Z,1.50
2019-05-20T02:27:10.572Z,1.47
2019-05-20T02:29:40.173Z,1.67
2019-05-20T02:32:09.604Z,1.60
2019-05-20T02:34:39.069Z,1.50
2019-05-20T02:37:08.221Z,1.37
2019-05-20T02:39:37.417Z,1.40
2019-05-20T02:42:06.809Z,1.27
2019-05-20T02:44:36.372Z,1.53
2019-05-20T02:47:05.734Z,1.30
2019-05-20T02:49:34.909Z,1.10
2019-05-20T02:52:04.076Z,1.50
2019-05-20T02:54:33.508Z,1.33
2019-05-20T02:57:02.645Z,1.00
2019-05-20T02:59:31.817Z,1.30
2019-05-20T03:02:01.189Z,1.40
2019-05-20T03:04:30.759Z,1.20
2019-05-20T03:07:00.193Z,1.20
2019-05-20T03:09:29.366Z,1.20
2019-05-20T03:11:58.534Z,1.23
2019-05-20T03:14:27.826Z,1.20
2019-05-20T03:16:57.008Z,1.20
2019-05-20T03:19:26.249Z,1.17
2019-05-20T03:21:55.554Z,1.20
2019-05-20T03:24:24.721Z,1.00
2019-05-20T03:26:53.901Z,1.00
2019-05-20T03:29:23.238Z,1.20
2019-05-20T03:31:52.462Z,1.10
2019-05-20T03:34:43.877Z,1.00
2019-05-20T03:36:52.951Z,1.30
2019-05-20T03:39:22.213Z,1.20
2019-05-20T03:41:51.404Z,1.03
2019-05-20T03:44:20.549Z,1.10
2019-05-20T03:46:50.103Z,1.17
2019-05-20T03:49:19.603Z,1.47
2019-05-20T03:51:52.355Z,1.23
2019-05-20T03:54:19.701Z,1.30
2019-05-20T03:56:49.111Z,1.10
2019-05-20T03:59:18.279Z,1.43
2019-05-20T04:01:47.525Z,1.20
2019-05-20T04:04:16.757Z,1.70
2019-05-20T04:06:45.919Z,1.77
2019-05-20T04:09:15.077Z,1.70
2019-05-20T04:11:44.482Z,2.20
2019-05-20T04:14:13.633Z,1.83
2019-05-20T04:16:42.814Z,1.50
2019-05-20T04:19:12.179Z,1.60
2019-05-20T04:21:41.346Z,1.83
2019-05-20T04:24:10.553Z,1.90
2019-05-20T04:26:39.776Z,2.10
2019-05-20T04:29:08.977Z,6.13
2019-05-20T04:31:38.218Z,4.40
2019-05-20T04:34:07.364Z,2.40
2019-05-20T04:36:36.541Z,2.20
2019-05-20T04:39:06.976Z,2.13
2019-05-20T04:41:36.655Z,2.10
2019-05-20T04:44:05.829Z,2.60
2019-05-20T04:46:35.171Z,2.20
2019-05-20T04:49:04.397Z,1.87
2019-05-20T04:51:33.578Z,2.13
2019-05-20T04:54:02.893Z,2.30
2019-05-20T04:56:32.397Z,2.30
2019-05-20T04:59:01.598Z,2.20
2019-05-20T05:01:30.762Z,2.80
2019-05-20T05:03:59.961Z,3.00
2019-05-20T05:06:29.485Z,4.37
2019-05-20T05:08:58.664Z,3.20
2019-05-20T05:11:27.901Z,3.20
2019-05-20T05:13:57.099Z,3.20
2019-05-20T05:16:26.343Z,3.27
2019-05-20T05:18:55.514Z,4.40
2019-05-20T05:21:24.707Z,5.27
2019-05-20T05:23:59.310Z,4.67
2019-05-20T05:26:24.896Z,4.53
2019-05-20T05:28:54.336Z,12.57
2019-05-20T05:31:23.524Z,9.43
2019-05-20T05:33:54.448Z,5.80
2019-05-20T05:36:23.989Z,5.87
2019-05-20T05:38:53.176Z,6.27
2019-05-20T05:41:22.794Z,6.63
2019-05-20T05:43:51.977Z,6.17
2019-05-20T05:46:21.145Z,6.33
2019-05-20T05:48:50.325Z,6.00
2019-05-20T05:51:19.510Z,6.17
2019-05-20T05:53:48.718Z,5.87
2019-05-20T05:56:17.903Z,6.43
2019-05-20T05:58:47.069Z,6.23
2019-05-20T06:01:16.521Z,5.87
2019-05-20T06:03:45.809Z,6.30
2019-05-20T06:06:14.980Z,6.23
2019-05-20T06:08:44.143Z,6.10
2019-05-20T06:11:13.722Z,6.17
2019-05-20T06:13:43.217Z,6.27
2019-05-20T06:16:12.897Z,7.40
2019-05-20T06:18:42.373Z,8.20
2019-05-20T06:21:11.713Z,7.00
2019-05-20T06:23:40.872Z,7.30
2019-05-20T06:26:10.050Z,9.67
2019-05-20T06:28:39.425Z,7.47
2019-05-20T06:31:08.620Z,8.30
2019-05-20T06:33:37.814Z,8.77
2019-05-20T06:36:07.277Z,8.47
2019-05-20T06:38:40.720Z,9.17
2019-05-20T06:41:10.101Z,9.70
2019-05-20T06:43:39.281Z,9.47
2019-05-20T06:46:08.484Z,9.67
2019-05-20T06:48:37.801Z,9.27
2019-05-20T06:51:07.334Z,10.47
2019-05-20T06:53:36.589Z,10.80
2019-05-20T06:56:05.867Z,12.27
2019-05-20T06:58:35.122Z,12.07
2019-05-20T07:01:04.448Z,12.43
2019-05-20T07:03:34.578Z,12.83
2019-05-20T07:06:03.849Z,15.23
2019-05-20T07:08:33.175Z,15.97
2019-05-20T07:11:02.727Z,16.37
2019-05-20T07:13:32.191Z,15.13
2019-05-20T07:16:01.460Z,15.53
2019-05-20T07:18:30.746Z,14.87
2019-05-20T07:20:59.897Z,14.73
2019-05-20T07:23:29.420Z,14.40
2019-05-20T07:25:58.603Z,15.00
2019-05-20T07:28:27.802Z,15.13
2019-05-20T07:30:57.109Z,14.70
2019-05-20T07:33:26.695Z,15.20
2019-05-20T07:35:56.105Z,16.67
2019-05-20T07:38:25.296Z,14.90
2019-05-20T07:40:54.467Z,13.50
2019-05-20T07:43:23.818Z,13.97
2019-05-20T07:45:53.637Z,14.03
2019-05-20T07:48:23.090Z,14.03
2019-05-20T07:50:53.345Z,14.67
2019-05-20T07:53:23.065Z,13.13
2019-05-20T07:56:00.364Z,12.80
2019-05-20T07:58:33.666Z,12.60
2019-05-20T08:01:03.208Z,12.57
2019-05-20T08:03:32.781Z,12.90
2019-05-20T08:06:02.042Z,12.30
2019-05-20T08:08:31.708Z,18.17
2019-05-20T08:11:00.945Z,14.30
2019-05-20T08:13:30.150Z,12.37
2019-05-20T08:15:59.565Z,12.00
2019-05-20T08:18:28.738Z,12.40
2019-05-20T08:20:57.919Z,13.03
2019-05-20T08:23:27.315Z,12.03
2019-05-20T08:25:56.740Z,12.17
2019-05-20T08:28:25.904Z,12.53
2019-05-20T08:30:55.338Z,12.80
2019-05-20T08:33:24.859Z,12.33
2019-05-20T08:35:54.058Z,16.97
2019-05-20T08:38:23.233Z,16.53
2019-05-20T08:40:52.417Z,12.00
2019-05-20T08:43:21.573Z,12.77
2019-05-20T08:45:50.792Z,12.57
2019-05-20T08:48:20.245Z,12.40
2019-05-20T08:50:49.454Z,13.30
2019-05-20T08:53:18.969Z,12.73
2019-05-20T08:55:48.374Z,12.20
2019-05-20T08:58:17.550Z,12.53
2019-05-20T09:00:46.757Z,14.97
2019-05-20T09:03:16.081Z,13.83
2019-05-20T09:05:45.604Z,13.27
2019-05-20T09:08:14.779Z,13.13
2019-05-20T09:10:44.032Z,13.93
2019-05-20T09:13:13.201Z,16.53
2019-05-20T09:15:45.333Z,14.20
2019-05-20T09:18:13.861Z,12.90
2019-05-20T09:20:43.172Z,12.77
2019-05-20T09:23:12.474Z,12.67
2019-05-20T09:25:41.979Z,12.33
2019-05-20T09:28:11.528Z,12.53
2019-05-20T09:30:40.982Z,12.27
2019-05-20T09:33:10.453Z,12.53
2019-05-20T09:35:39.643Z,11.70
2019-05-20T09:38:19.466Z,11.27
2019-05-20T09:40:42.694Z,10.87
2019-05-20T09:43:11.881Z,12.23
2019-05-20T09:45:41.382Z,12.47
2019-05-20T09:48:11.022Z,13.43
2019-05-20T09:50:40.277Z,15.37
2019-05-20T09:53:09.484Z,13.07
2019-05-20T09:55:38.773Z,14.23
2019-05-20T09:58:08.222Z,13.90
2019-05-20T10:00:37.507Z,14.43
2019-05-20T10:03:07.747Z,13.97
2019-05-20T10:05:37.981Z,14.33
2019-05-20T10:08:07.622Z,15.10
2019-05-20T10:10:37.674Z,14.47
2019-05-20T10:13:07.994Z,14.33
2019-05-20T10:15:37.810Z,13.90
2019-05-20T10:18:07.073Z,15.03
2019-05-20T10:20:36.691Z,15.23
2019-05-20T10:23:06.606Z,13.63
2019-05-20T10:25:36.061Z,15.03
2019-05-20T10:28:05.326Z,14.53
2019-05-20T10:30:35.332Z,15.30
2019-05-20T10:33:09.366Z,14.63
2019-05-20T10:35:35.593Z,16.03
2019-05-20T10:38:05.393Z,17.30
2019-05-20T10:40:34.572Z,16.00
2019-05-20T10:43:03.813Z,16.23
2019-05-20T10:45:33.929Z,15.83
2019-05-20T10:48:03.159Z,17.77
2019-05-20T10:50:32.468Z,16.07
2019-05-20T10:53:01.670Z,17.80
2019-05-20T10:55:30.861Z,17.93
2019-05-20T10:58:00.181Z,17.40
2019-05-20T11:00:29.447Z,17.70
2019-05-20T11:02:59.048Z,18.00
2019-05-20T11:05:28.416Z,17.20
2019-05-20T11:07:57.864Z,17.30
2019-05-20T11:10:27.289Z,18.07
2019-05-20T11:12:56.545Z,17.60
2019-05-20T11:15:25.767Z,17.00
2019-05-20T11:17:55.412Z,17.73
2019-05-20T11:20:24.796Z,18.87
2019-05-20T11:22:54.460Z,18.43
2019-05-20T11:25:23.708Z,18.37
2019-05-20T11:27:52.860Z,19.30
2019-05-20T11:30:22.076Z,19.17
2019-05-20T11:32:51.505Z,20.00
2019-05-20T11:35:20.733Z,18.47
2019-05-20T11:37:49.885Z,19.10
2019-05-20T11:40:19.212Z,19.13
2019-05-20T11:42:48.385Z,19.87
2019-05-20T11:45:17.978Z,20.47
2019-05-20T11:47:47.142Z,19.77
2019-05-20T11:50:16.870Z,20.33
2019-05-20T11:52:46.100Z,19.57
2019-05-20T11:55:15.425Z,21.47
2019-05-20T11:57:44.682Z,21.13
2019-05-20T12:00:14.606Z,20.70
2019-05-20T12:02:44.045Z,22.03
2019-05-20T12:05:13.756Z,21.93
2019-05-20T12:07:43.233Z,22.63
2019-05-20T12:10:13.049Z,22.50
2019-05-20T12:12:45.790Z,22.83
2019-05-20T12:15:13.712Z,23.37
2019-05-20T12:17:42.879Z,23.97
2019-05-20T12:20:14.018Z,24.17
2019-05-20T12:22:43.493Z,23.60
2019-05-20T12:25:12.913Z,24.40
2019-05-20T12:27:42.114Z,26.83
2019-05-20T12:30:11.963Z,25.83
2019-05-20T12:32:41.413Z,24.67
2019-05-20T12:35:10.707Z,26.83
2019-05-20T12:37:39.897Z,26.17
2019-05-20T12:40:10.154Z,24.30
2019-05-20T12:42:39.334Z,24.87
2019-05-20T12:45:10.168Z,24.60
2019-05-20T12:47:39.562Z,25.73
2019-05-20T12:50:10.365Z,24.73
2019-05-20T12:52:39.909Z,23.10
2019-05-20T12:55:10.689Z,23.07
2019-05-20T12:57:39.943Z,25.63
2019-05-20T13:00:10.717Z,24.67
2019-05-20T13:02:40.034Z,24.77
2019-05-20T13:05:09.472Z,24.63
2019-05-20T13:07:38.767Z,24.27
2019-05-20T13:10:26.645Z,24.60
2019-05-20T13:12:39.781Z,26.43
2019-05-20T13:15:09.972Z,24.83
2019-05-20T13:17:43.896Z,24.80
2019-05-20T13:20:10.498Z,25.87
2019-05-20T13:22:39.806Z,24.30
2019-05-20T13:25:09.322Z,23.40
2019-05-20T13:27:38.483Z,23.10
2019-05-20T13:30:09.432Z,24.70
2019-05-20T13:32:38.612Z,25.83
2019-05-20T13:35:08.537Z,25.73
2019-05-20T13:37:38.189Z,24.47
2019-05-20T13:40:07.799Z,24.60
2019-05-20T13:42:36.997Z,24.30
2019-05-20T13:45:08.033Z,24.30
2019-05-20T13:47:37.218Z,22.37
2019-05-20T13:50:07.648Z,23.63
2019-05-20T13:52:36.901Z,22.67
2019-05-20T13:55:06.506Z,24.30
2019-05-20T13:57:37.654Z,23.43
2019-05-20T14:00:07.428Z,23.40
2019-05-20T14:02:36.765Z,23.57
2019-05-20T14:05:06.450Z,22.83
2019-05-20T14:07:35.990Z,24.73
2019-05-20T14:10:05.441Z,23.67
2019-05-20T14:12:35.081Z,29.93
2019-05-20T14:15:04.785Z,24.57
2019-05-20T14:17:34.113Z,24.90
2019-05-20T14:20:04.512Z,26.00
2019-05-20T14:22:34.145Z,23.47
2019-05-20T14:25:03.674Z,24.93
2019-05-20T14:27:32.854Z,26.93
2019-05-20T14:30:02.863Z,25.67
2019-05-20T14:32:32.413Z,24.63
2019-05-20T14:35:01.825Z,25.33
2019-05-20T14:37:31.045Z,25.77
2019-05-20T14:40:00.248Z,26.10
2019-05-20T14:42:29.540Z,23.57
2019-05-20T14:44:59.057Z,24.27
2019-05-20T14:47:28.515Z,23.37
2019-05-20T14:49:57.726Z,24.37
2019-05-20T14:52:26.926Z,28.90
2019-05-20T14:54:56.315Z,27.90
2019-05-20T14:57:25.812Z,25.07
2019-05-20T14:59:55.343Z,25.13
2019-05-20T15:02:24.824Z,26.17
2019-05-20T15:04:54.022Z,25.80
2019-05-20T15:07:29.779Z,35.53
2019-05-20T15:09:54.429Z,24.83
2019-05-20T15:12:23.914Z,24.17
2019-05-20T15:14:53.109Z,23.67
2019-05-20T15:17:22.362Z,23.93
2019-05-20T15:19:51.625Z,23.57
2019-05-20T15:22:21.127Z,22.77
2019-05-20T15:24:50.486Z,24.33
2019-05-20T15:27:20.033Z,23.50
2019-05-20T15:29:49.541Z,24.97
2019-05-20T15:32:18.729Z,24.00
2019-05-20T15:34:47.893Z,24.87
2019-05-20T15:37:17.169Z,24.63
2019-05-20T15:39:46.418Z,23.93
2019-05-20T15:42:15.929Z,22.47
2019-05-20T15:44:45.119Z,22.13
2019-05-20T15:47:18.481Z,34.97
2019-05-20T15:49:45.426Z,23.23
2019-05-20T15:52:14.668Z,21.87
2019-05-20T15:54:44.126Z,22.60
2019-05-20T15:57:13.760Z,21.83
2019-05-20T15:59:46.198Z,19.33
2019-05-20T16:02:14.311Z,16.03
2019-05-20T16:04:43.737Z,17.43
2019-05-20T16:07:12.968Z,17.47
2019-05-20T16:09:42.355Z,16.97
2019-05-20T16:12:11.583Z,15.53
2019-05-20T16:14:40.788Z,16.67
2019-05-20T16:17:10.032Z,17.23
2019-05-20T16:19:39.442Z,16.73
2019-05-20T16:22:08.745Z,17.33
2019-05-20T16:24:38.020Z,14.93
2019-05-20T16:27:07.185Z,15.20
2019-05-20T16:29:36.404Z,15.60
2019-05-20T16:32:05.637Z,16.43
2019-05-20T16:34:34.892Z,16.57
2019-05-20T16:37:04.264Z,16.63
2019-05-20T16:39:33.468Z,16.87
2019-05-20T16:42:02.733Z,18.10
2019-05-20T16:44:31.981Z,16.83
2019-05-20T16:47:01.156Z,17.10
2019-05-20T16:49:30.434Z,18.40
2019-05-20T16:51:59.686Z,26.33
2019-05-20T16:54:29.098Z,19.03
2019-05-20T16:56:58.265Z,18.90
2019-05-20T16:59:27.449Z,19.50
2019-05-20T17:01:56.918Z,19.73
2019-05-20T17:04:26.522Z,21.50
2019-05-20T17:06:56.013Z,20.50
2019-05-20T17:09:25.514Z,21.90
2019-05-20T17:11:55.022Z,23.17
2019-05-20T17:14:24.184Z,24.53
2019-05-20T17:16:53.471Z,23.07
2019-05-20T17:19:22.664Z,24.63
2019-05-20T17:21:51.873Z,24.37
2019-05-20T17:24:21.177Z,25.27
2019-05-20T17:26:50.537Z,24.50
2019-05-20T17:29:19.851Z,32.03
2019-05-20T17:31:49.472Z,24.60
2019-05-20T17:34:18.894Z,24.63
2019-05-20T17:36:48.212Z,26.20
2019-05-20T17:39:17.530Z,24.70
2019-05-20T17:41:46.778Z,25.43
2019-05-20T17:44:16.201Z,24.97
2019-05-20T17:46:45.488Z,25.10
2019-05-20T17:49:14.878Z,26.40
2019-05-20T17:51:44.243Z,25.03
2019-05-20T17:54:13.519Z,24.90
2019-05-20T17:56:43.024Z,23.87
2019-05-20T17:59:12.482Z,23.87
2019-05-20T18:01:41.689Z,25.63
2019-05-20T18:04:10.872Z,24.87
2019-05-20T18:06:40.424Z,25.93
2019-05-20T18:09:09.819Z,28.00
2019-05-20T18:11:39.215Z,26.60
2019-05-20T18:14:08.509Z,29.07
2019-05-20T18:16:37.874Z,30.07
2019-05-20T18:19:07.064Z,27.47
2019-05-20T18:21:36.560Z,26.67
2019-05-20T18:24:06.025Z,25.07
2019-05-20T18:26:35.531Z,27.03
2019-05-20T18:29:04.900Z,28.13
2019-05-20T18:31:34.151Z,26.33
2019-05-20T18:34:03.768Z,27.50
2019-05-20T18:36:33.165Z,29.17
2019-05-20T18:39:02.450Z,26.23
2019-05-20T18:41:31.924Z,27.27
2019-05-20T18:44:01.460Z,26.33
2019-05-20T18:46:31.106Z,26.03
2019-05-20T18:49:00.643Z,28.53
2019-05-20T18:51:30.100Z,27.63
2019-05-20T18:53:59.692Z,29.17
2019-05-20T18:56:29.168Z,30.90
2019-05-20T18:58:58.419Z,30.20
2019-05-20T19:01:27.670Z,30.33
2019-05-20T19:03:56.932Z,29.50
2019-05-20T19:06:26.496Z,29.53
2019-05-20T19:08:56.088Z,31.40
2019-05-20T19:11:25.453Z,33.33
2019-05-20T19:13:54.672Z,32.17
2019-05-20T19:16:23.921Z,30.77
2019-05-20T19:18:53.253Z,29.73
2019-05-20T19:21:22.919Z,30.40
2019-05-20T19:23:52.186Z,31.53
2019-05-20T19:26:24.831Z,31.23
2019-05-20T19:28:52.974Z,31.90
2019-05-20T19:32:00.844Z,30.80
2019-05-20T19:34:26.641Z,31.67
2019-05-20T19:36:59.117Z,32.67
2019-05-20T19:39:52.587Z,33.17
2019-05-20T19:42:09.329Z,33.37
2019-05-20T19:44:51.134Z,35.13
2019-05-20T19:47:20.771Z,34.93
2019-05-20T19:49:49.986Z,34.87
2019-05-20T19:52:19.279Z,33.53
2019-05-20T19:54:59.833Z,32.27
2019-05-20T19:57:29.251Z,38.90
2019-05-20T19:59:58.519Z,35.13
2019-05-20T20:02:27.726Z,33.77
2019-05-20T20:04:56.933Z,33.03
2019-05-20T20:07:28.757Z,32.03
2019-05-20T20:09:57.371Z,31.70
2019-05-20T20:12:27.071Z,29.63
2019-05-20T20:14:56.293Z,28.80
2019-05-20T20:17:25.581Z,30.40
2019-05-20T20:19:58.099Z,30.30
2019-05-20T20:22:25.734Z,28.30
2019-05-20T20:24:54.929Z,28.00
2019-05-20T20:27:26.104Z,26.13
2019-05-20T20:29:55.366Z,27.40
2019-05-20T20:32:37.248Z,28.67
2019-05-20T20:34:55.692Z,30.27
2019-05-20T20:37:25.177Z,31.50
2019-05-20T20:39:54.445Z,30.07
2019-05-20T20:42:23.724Z,33.43
2019-05-20T20:44:52.914Z,32.77
2019-05-20T20:47:22.155Z,43.13
2019-05-20T20:49:51.347Z,33.07
2019-05-20T20:52:20.714Z,32.70
2019-05-20T20:54:50.103Z,28.07
2019-05-20T20:57:19.636Z,24.17
2019-05-20T20:59:50.287Z,23.73
2019-05-20T21:02:19.852Z,22.40
2019-05-20T21:04:49.206Z,22.37
2019-05-20T21:07:18.767Z,24.30
2019-05-20T21:09:47.983Z,22.70
2019-05-20T21:12:17.267Z,22.07
2019-05-20T21:14:46.528Z,21.73
2019-05-20T21:17:16.096Z,21.00
2019-05-20T21:19:45.561Z,19.57
2019-05-20T21:22:14.735Z,21.33
2019-05-20T21:24:44.069Z,19.83
2019-05-20T21:27:13.306Z,20.30
2019-05-20T21:29:42.929Z,19.07
2019-05-20T21:32:12.172Z,23.00
2019-05-20T21:34:41.771Z,20.30
2019-05-20T21:37:10.944Z,21.97
2019-05-20T21:39:40.205Z,24.90
2019-05-20T21:42:09.389Z,26.13
2019-05-20T21:44:38.590Z,27.40
2019-05-20T21:47:10.659Z,24.33
2019-05-20T21:49:40.008Z,24.57
2019-05-20T21:52:09.179Z,21.73
2019-05-20T21:54:38.349Z,21.00
2019-05-20T21:57:07.808Z,19.17
2019-05-20T21:59:37.286Z,21.00
2019-05-20T22:02:06.788Z,22.00
2019-05-20T22:04:36.049Z,21.50
2019-05-20T22:07:05.501Z,21.10
2019-05-20T22:09:34.712Z,20.63
2019-05-20T22:12:04.071Z,18.53
2019-05-20T22:14:33.717Z,21.10
2019-05-20T22:17:03.283Z,20.43
2019-05-20T22:19:32.673Z,20.50
2019-05-20T22:22:27.108Z,21.00
2019-05-20T22:24:56.405Z,19.23
2019-05-20T22:27:25.719Z,20.53
2019-05-20T22:29:54.914Z,21.20
2019-05-20T22:32:24.170Z,21.80
2019-05-20T22:34:54.077Z,23.03
2019-05-20T22:37:23.442Z,22.87
2019-05-20T22:39:52.628Z,22.73
2019-05-20T22:42:21.996Z,24.03
2019-05-20T22:44:51.529Z,25.70
2019-05-20T22:47:21.164Z,24.20
2019-05-20T22:49:50.481Z,23.70
2019-05-20T22:52:19.684Z,24.63
2019-05-20T22:54:49.052Z,24.10
2019-05-20T22:57:18.283Z,22.63
2019-05-20T22:59:47.429Z,22.90
2019-05-20T23:02:16.617Z,23.77
2019-05-20T23:04:45.833Z,22.47
2019-05-20T23:07:15.023Z,22.10
2019-05-20T23:09:44.193Z,22.80
2019-05-20T23:12:13.600Z,21.87
2019-05-20T23:14:43.044Z,22.93
2019-05-20T23:17:12.242Z,21.93
2019-05-20T23:19:41.403Z,20.87
2019-05-20T23:22:10.736Z,19.80
2019-05-20T23:24:40.336Z,20.27
2019-05-20T23:27:09.883Z,20.80
2019-05-20T23:29:39.039Z,21.23
2019-05-20T23:32:08.208Z,21.97
2019-05-20T23:34:37.574Z,21.93
2019-05-20T23:37:07.078Z,22.13
2019-05-20T23:39:36.603Z,22.37
2019-05-20T23:42:05.783Z,22.37
2019-05-20T23:44:34.965Z,22.80
2019-05-20T23:47:04.155Z,23.67
2019-05-20T23:49:35.274Z,22.07
2019-05-20T23:52:04.448Z,23.50
2019-05-20T23:54:33.718Z,24.47
2019-05-20T23:57:03.018Z,21.87
2019-05-20T23:59:32.250Z,24.70
